Edmond, Oklahoma
Current Conditions -  °F | °C
As of 11:53 PM on Thursday 30 Oct 2014 (Local Time) from KPWA Reporting Station
Clear Clear  
Wind Chill: 55°   Ceiling: Unl
Heat Index: 55°   Visibility: 10mi
Dew Point: 37°   Wind: 8mph
Humidity: 51%   Direction: 360°N
Pressure: 30.24"   Gusts: NA
Location:  35.65°N, 97.48°W
Report Text: KPWA 310453Z 36007KT 10SM CLR 13/03 A3024 RMK AO2 SLP234 T01280028
Loading
Personal Weather Stations






























Interactive Weather Map
Tropical Storm Tracking
New forecast layout! Learn more

10-Day Weather Forecast

Advertisements
Track Severe Weather on mobile